createdAt,value
2018-07-13T00:01:45.274Z,5.13
2018-07-13T00:04:13.136Z,4.53
2018-07-13T00:06:40.354Z,4.40
2018-07-13T00:09:09.837Z,4.57
2018-07-13T00:11:37.474Z,5.10
2018-07-13T00:14:21.115Z,4.63
2018-07-13T00:19:38.605Z,5.10
2018-07-13T00:22:06.047Z,4.53
2018-07-13T00:24:33.306Z,4.73
2018-07-13T00:27:00.545Z,5.47
2018-07-13T00:29:27.778Z,4.90
2018-07-13T00:31:54.997Z,4.63
2018-07-13T00:34:22.258Z,5.03
2018-07-13T00:36:49.484Z,5.07
2018-07-13T00:39:16.732Z,4.67
2018-07-13T00:41:43.982Z,4.60
2018-07-13T00:44:11.218Z,4.50
2018-07-13T00:46:38.431Z,5.30
2018-07-13T00:49:05.709Z,4.70
2018-07-13T00:51:32.938Z,4.57
2018-07-13T00:54:00.220Z,5.00
2018-07-13T00:56:27.434Z,5.50
2018-07-13T00:58:54.678Z,5.77
2018-07-13T01:01:21.917Z,5.93
2018-07-13T01:03:49.195Z,5.67
2018-07-13T01:06:16.479Z,5.30
2018-07-13T01:08:43.729Z,5.57
2018-07-13T01:11:11.032Z,5.47
2018-07-13T01:13:38.306Z,5.50
2018-07-13T01:16:05.569Z,6.13
2018-07-13T01:18:32.828Z,6.03
2018-07-13T01:21:00.116Z,6.00
2018-07-13T01:23:27.339Z,5.83
2018-07-13T01:25:54.618Z,6.13
2018-07-13T01:28:21.846Z,6.03
2018-07-13T01:30:49.085Z,5.63
2018-07-13T01:33:16.314Z,5.63
2018-07-13T01:35:43.552Z,6.33
2018-07-13T01:38:10.825Z,5.97
2018-07-13T01:40:38.090Z,6.40
2018-07-13T01:43:05.383Z,6.73
2018-07-13T01:45:32.646Z,5.63
2018-07-13T01:47:59.897Z,6.37
2018-07-13T01:50:27.177Z,6.30
2018-07-13T01:52:54.444Z,6.67
2018-07-13T01:55:21.732Z,6.10
2018-07-13T01:57:48.978Z,7.60
2018-07-13T02:00:16.283Z,7.00
2018-07-13T02:02:43.555Z,6.77
2018-07-13T02:05:10.860Z,7.43
2018-07-13T02:07:38.096Z,7.53
2018-07-13T02:10:05.424Z,6.83
2018-07-13T02:12:32.698Z,7.00
2018-07-13T02:14:59.951Z,8.47
2018-07-13T02:17:27.154Z,7.67
2018-07-13T02:19:54.422Z,7.97
2018-07-13T02:22:21.702Z,8.00
2018-07-13T02:24:48.985Z,8.50
2018-07-13T02:27:16.674Z,7.57
2018-07-13T02:29:43.933Z,8.03
2018-07-13T02:32:11.174Z,8.17
2018-07-13T02:34:38.439Z,8.80
2018-07-13T02:37:06.094Z,8.27
2018-07-13T02:39:33.584Z,8.07
2018-07-13T02:42:00.826Z,8.13
2018-07-13T02:44:28.082Z,8.97
2018-07-13T02:46:55.340Z,8.40
2018-07-13T02:49:22.597Z,8.00
2018-07-13T02:51:49.879Z,9.30
2018-07-13T02:54:17.155Z,8.90
2018-07-13T02:56:44.504Z,8.50
2018-07-13T02:59:11.745Z,8.97
2018-07-13T03:01:39.067Z,8.00
2018-07-13T03:04:06.398Z,9.17
2018-07-13T03:06:33.734Z,8.20
2018-07-13T03:09:01.215Z,7.60
2018-07-13T03:11:29.391Z,9.03
2018-07-13T03:13:56.715Z,8.30
2018-07-13T03:16:24.638Z,9.60
2018-07-13T03:18:53.874Z,9.20
2018-07-13T03:21:22.749Z,9.03
2018-07-13T03:23:51.410Z,8.83
2018-07-13T03:26:18.832Z,8.67
2018-07-13T03:28:46.162Z,8.63
2018-07-13T03:31:13.505Z,9.73
2018-07-13T03:33:40.824Z,8.27
2018-07-13T03:36:08.166Z,8.93
2018-07-13T03:38:35.489Z,8.40
2018-07-13T03:41:02.885Z,7.97
2018-07-13T03:43:30.208Z,8.70
2018-07-13T03:45:57.523Z,8.30
2018-07-13T03:48:24.891Z,7.67
2018-07-13T03:50:52.249Z,7.77
2018-07-13T03:53:19.583Z,8.73
2018-07-13T03:55:46.922Z,8.03
2018-07-13T03:58:14.252Z,8.43
2018-07-13T04:00:41.582Z,7.30
2018-07-13T04:03:11.064Z,7.37
2018-07-13T04:05:38.392Z,7.07
2018-07-13T04:08:05.778Z,6.90
2018-07-13T04:10:33.195Z,6.70
2018-07-13T04:13:00.570Z,7.10
2018-07-13T04:15:28.627Z,7.73
2018-07-13T04:17:56.035Z,6.93
2018-07-13T04:20:23.641Z,6.70
2018-07-13T04:22:51.086Z,6.70
2018-07-13T04:25:18.449Z,7.37
2018-07-13T04:27:46.576Z,6.93
2018-07-13T04:30:14.049Z,7.70
2018-07-13T04:32:41.434Z,6.23
2018-07-13T04:35:08.836Z,6.87
2018-07-13T04:37:36.247Z,7.27
2018-07-13T04:40:03.846Z,6.77
2018-07-13T04:42:31.206Z,6.60
2018-07-13T04:44:58.535Z,7.30
2018-07-13T04:47:25.969Z,6.97
2018-07-13T04:49:53.291Z,7.23
2018-07-13T04:52:21.405Z,7.13
2018-07-13T04:54:49.156Z,6.03
2018-07-13T04:57:16.469Z,6.57
2018-07-13T04:59:44.036Z,6.50
2018-07-13T05:02:11.427Z,5.87
2018-07-13T05:04:38.713Z,5.90
2018-07-13T05:07:06.135Z,6.20
2018-07-13T05:09:33.523Z,6.53
2018-07-13T05:12:01.725Z,7.10
2018-07-13T05:14:29.073Z,6.37
2018-07-13T05:16:56.426Z,6.40
2018-07-13T05:19:23.802Z,6.77
2018-07-13T05:21:51.159Z,7.27
2018-07-13T05:24:19.486Z,7.00
2018-07-13T05:26:46.871Z,6.83
2018-07-13T05:29:14.887Z,6.73
2018-07-13T05:31:42.343Z,7.10
2018-07-13T05:34:10.026Z,7.10
2018-07-13T05:36:37.454Z,6.90
2018-07-13T05:39:08.416Z,5.97
2018-07-13T05:41:35.835Z,7.13
2018-07-13T05:44:03.352Z,6.67
2018-07-13T05:46:30.803Z,6.40
2018-07-13T05:48:58.272Z,6.37
2018-07-13T05:51:25.694Z,6.27
2018-07-13T05:53:53.059Z,6.17
2018-07-13T05:56:20.527Z,6.63
2018-07-13T05:58:48.050Z,5.53
2018-07-13T06:01:15.437Z,6.30
2018-07-13T06:03:43.513Z,5.20
2018-07-13T06:06:11.033Z,5.30
2018-07-13T06:08:38.411Z,5.93
2018-07-13T06:11:05.786Z,5.40
2018-07-13T06:13:33.174Z,4.70
2018-07-13T06:16:00.517Z,4.63
2018-07-13T06:18:27.878Z,5.13
2018-07-13T06:20:55.165Z,4.70
2018-07-13T06:23:23.095Z,4.70
2018-07-13T06:25:50.379Z,4.72
2018-07-13T06:28:17.740Z,4.53
2018-07-13T06:30:45.032Z,4.70
2018-07-13T06:33:12.395Z,5.00
2018-07-13T06:35:39.759Z,4.67
2018-07-13T06:38:07.155Z,5.08
2018-07-13T06:40:34.545Z,4.30
2018-07-13T06:43:01.934Z,5.05
2018-07-13T06:45:29.282Z,4.30
2018-07-13T06:47:56.620Z,4.75
2018-07-13T06:50:23.990Z,4.90
2018-07-13T06:52:51.357Z,4.85
2018-07-13T06:55:18.688Z,5.03
2018-07-13T06:57:57.298Z,4.97
2018-07-13T07:01:01.082Z,4.62
2018-07-13T07:03:29.422Z,4.53
2018-07-13T07:06:14.782Z,5.33
2018-07-13T07:08:45.566Z,5.25
2018-07-13T07:11:12.967Z,4.35
2018-07-13T07:13:43.405Z,5.65
2018-07-13T07:16:11.254Z,5.22
2018-07-13T07:18:38.614Z,5.35
2018-07-13T07:21:06.185Z,4.95
2018-07-13T07:23:34.203Z,5.37
2018-07-13T07:26:02.761Z,5.00
2018-07-13T07:28:30.115Z,5.03
2018-07-13T07:30:58.059Z,5.58
2018-07-13T07:33:25.452Z,4.95
2018-07-13T07:35:52.932Z,4.80
2018-07-13T07:38:20.342Z,4.42
2018-07-13T07:40:48.312Z,4.75
2018-07-13T07:43:15.943Z,4.55
2018-07-13T07:45:43.387Z,4.40
2018-07-13T07:48:11.022Z,3.77
2018-07-13T07:50:38.432Z,4.37
2018-07-13T07:53:05.851Z,3.83
2018-07-13T07:55:33.298Z,3.22
2018-07-13T07:58:00.675Z,2.60
2018-07-13T08:00:28.002Z,2.80
2018-07-13T08:02:55.390Z,3.45
2018-07-13T08:05:22.888Z,4.60
2018-07-13T08:07:50.198Z,4.55
2018-07-13T08:10:17.590Z,3.12
2018-07-13T08:12:44.919Z,3.20
2018-07-13T08:15:12.267Z,3.02
2018-07-13T08:17:39.640Z,3.20
2018-07-13T08:20:07.080Z,3.90
2018-07-13T08:22:44.123Z,2.67
2018-07-13T08:25:12.921Z,2.70
2018-07-13T08:27:50.886Z,2.87
2018-07-13T08:30:27.232Z,3.72
2018-07-13T08:32:54.583Z,2.47
2018-07-13T08:35:22.132Z,2.70
2018-07-13T08:37:49.574Z,2.30
2018-07-13T08:40:16.996Z,1.92
2018-07-13T08:42:44.953Z,1.98
2018-07-13T08:45:14.288Z,2.10
2018-07-13T08:47:42.185Z,2.00
2018-07-13T08:50:09.675Z,1.60
2018-07-13T08:52:37.049Z,2.60
2018-07-13T08:55:15.282Z,1.98
2018-07-13T08:57:43.708Z,1.87
2018-07-13T09:00:11.182Z,1.87
2018-07-13T09:02:39.773Z,1.77
2018-07-13T09:05:07.354Z,2.05
2018-07-13T09:07:35.688Z,3.58
2018-07-13T09:10:03.353Z,2.50
2018-07-13T09:12:30.925Z,2.70
2018-07-13T09:14:58.357Z,2.20
2018-07-13T09:17:25.746Z,2.00
2018-07-13T09:19:53.254Z,2.42
2018-07-13T09:22:21.216Z,2.00
2018-07-13T09:24:48.626Z,2.40
2018-07-13T09:27:16.209Z,2.10
2018-07-13T09:29:43.668Z,1.87
2018-07-13T09:32:11.063Z,2.15
2018-07-13T09:34:38.451Z,2.08
2018-07-13T09:37:05.850Z,2.00
2018-07-13T09:39:33.312Z,1.42
2018-07-13T09:42:00.647Z,1.65
2018-07-13T09:44:27.957Z,1.40
2018-07-13T09:46:55.597Z,1.75
2018-07-13T09:49:23.356Z,1.67
2018-07-13T09:51:51.116Z,1.22
2018-07-13T09:54:18.436Z,1.57
2018-07-13T09:56:46.149Z,1.32
2018-07-13T09:59:13.461Z,1.10
2018-07-13T10:01:40.832Z,1.30
2018-07-13T10:04:08.317Z,1.20
2018-07-13T10:06:35.650Z,1.15
2018-07-13T10:09:03.448Z,1.30
2018-07-13T10:11:30.864Z,1.47
2018-07-13T10:13:58.214Z,1.20
2018-07-13T10:16:25.632Z,1.40
2018-07-13T10:18:53.912Z,1.00
2018-07-13T10:21:21.375Z,1.42
2018-07-13T10:23:48.806Z,1.10
2018-07-13T10:26:21.014Z,1.15
2018-07-13T10:28:48.427Z,1.00
2018-07-13T10:31:16.044Z,1.10
2018-07-13T10:33:44.133Z,1.27
2018-07-13T10:36:13.833Z,1.45
2018-07-13T10:38:41.176Z,1.30
2018-07-13T10:41:08.648Z,1.25
2018-07-13T10:43:36.102Z,1.22
2018-07-13T10:46:03.523Z,1.32
2018-07-13T10:48:30.926Z,1.20
2018-07-13T10:50:58.299Z,1.35
2018-07-13T10:53:25.822Z,1.25
2018-07-13T10:55:53.152Z,1.22
2018-07-13T10:58:20.495Z,1.12
2018-07-13T11:00:47.854Z,1.10
2018-07-13T11:03:15.192Z,0.95
2018-07-13T11:05:42.579Z,1.20
2018-07-13T11:08:10.550Z,1.25
2018-07-13T11:10:37.834Z,1.07
2018-07-13T11:13:05.161Z,1.02
2018-07-13T11:15:32.533Z,1.05
2018-07-13T11:17:59.866Z,1.20
2018-07-13T11:20:27.259Z,1.20
2018-07-13T11:22:54.599Z,1.35
2018-07-13T11:25:21.960Z,1.12
2018-07-13T11:27:49.310Z,1.12
2018-07-13T11:30:16.650Z,1.30
2018-07-13T11:32:44.123Z,1.10
2018-07-13T11:35:12.130Z,1.10
2018-07-13T11:37:39.429Z,1.05
2018-07-13T11:40:06.781Z,1.10
2018-07-13T11:42:34.669Z,1.10
2018-07-13T11:45:02.075Z,0.95
2018-07-13T11:47:29.430Z,1.40
2018-07-13T11:49:56.761Z,1.30
2018-07-13T11:52:24.151Z,0.88
2018-07-13T11:54:51.451Z,1.22
2018-07-13T11:57:18.825Z,1.25
2018-07-13T11:59:46.200Z,1.10
2018-07-13T12:02:13.633Z,1.40
2018-07-13T12:04:40.951Z,1.20
2018-07-13T12:07:08.246Z,1.12
2018-07-13T12:09:35.607Z,1.30
2018-07-13T12:12:02.953Z,1.20
2018-07-13T12:14:30.327Z,1.10
2018-07-13T12:16:57.698Z,1.15
2018-07-13T12:19:25.062Z,1.30
2018-07-13T12:21:52.415Z,1.52
2018-07-13T12:24:19.780Z,1.32
2018-07-13T12:26:47.128Z,8.38
2018-07-13T12:29:14.435Z,1.17
2018-07-13T12:31:42.377Z,1.12
2018-07-13T12:34:10.489Z,1.27
2018-07-13T12:36:37.833Z,2.10
2018-07-13T12:39:05.972Z,1.25
2018-07-13T12:41:33.554Z,1.80
2018-07-13T12:44:00.906Z,1.55
2018-07-13T12:46:28.414Z,1.32
2018-07-13T12:48:55.780Z,1.40
2018-07-13T12:51:23.761Z,1.20
2018-07-13T12:53:51.193Z,1.37
2018-07-13T12:56:18.535Z,1.12
2018-07-13T12:58:45.906Z,1.60
2018-07-13T13:01:13.252Z,1.50
2018-07-13T13:03:40.604Z,1.60
2018-07-13T13:06:07.909Z,1.35
2018-07-13T13:08:35.302Z,1.70
2018-07-13T13:11:02.713Z,1.57
2018-07-13T13:13:30.282Z,13.72
2018-07-13T13:15:57.634Z,1.57
2018-07-13T13:18:24.978Z,1.57
2018-07-13T13:20:52.339Z,1.92
2018-07-13T13:23:19.741Z,1.70
2018-07-13T13:25:48.063Z,1.37
2018-07-13T13:28:15.437Z,1.37
2018-07-13T13:30:42.822Z,1.32
2018-07-13T13:33:12.235Z,1.47
2018-07-13T13:35:39.644Z,1.90
2018-07-13T13:38:07.261Z,1.62
2018-07-13T13:40:34.584Z,1.12
2018-07-13T13:43:01.909Z,1.47
2018-07-13T13:45:29.258Z,1.30
2018-07-13T13:47:56.573Z,1.20
2018-07-13T13:50:23.936Z,1.40
2018-07-13T13:52:51.298Z,1.30
2018-07-13T13:55:18.533Z,1.60
2018-07-13T13:57:45.923Z,1.50
2018-07-13T14:00:13.191Z,1.22
2018-07-13T14:02:40.660Z,1.30
2018-07-13T14:05:08.089Z,1.45
2018-07-13T14:07:35.435Z,1.82
2018-07-13T14:10:02.894Z,1.12
2018-07-13T14:12:31.057Z,1.35
2018-07-13T14:14:58.482Z,1.37
2018-07-13T14:17:25.754Z,1.70
2018-07-13T14:19:53.173Z,1.40
2018-07-13T14:22:21.475Z,1.30
2018-07-13T14:24:48.982Z,1.30
2018-07-13T14:27:16.326Z,1.42
2018-07-13T14:29:43.632Z,1.57
2018-07-13T14:32:11.027Z,1.82
2018-07-13T14:34:38.373Z,1.35
2018-07-13T14:37:05.735Z,1.50
2018-07-13T14:39:34.122Z,1.60
2018-07-13T14:42:01.423Z,1.15
2018-07-13T14:44:28.811Z,1.25
2018-07-13T14:46:56.223Z,1.62
2018-07-13T14:49:23.575Z,1.37
2018-07-13T14:51:50.935Z,1.60
2018-07-13T14:54:18.857Z,1.40
2018-07-13T14:56:46.341Z,1.20
2018-07-13T14:59:14.207Z,1.45
2018-07-13T15:01:42.940Z,1.37
2018-07-13T15:04:10.349Z,1.50
2018-07-13T15:06:37.873Z,1.60
2018-07-13T15:09:05.370Z,1.70
2018-07-13T15:11:33.682Z,1.20
2018-07-13T15:14:01.056Z,1.67
2018-07-13T15:16:28.407Z,1.32
2018-07-13T15:18:55.713Z,1.35
2018-07-13T15:21:23.050Z,1.57
2018-07-13T15:23:50.416Z,1.70
2018-07-13T15:26:17.789Z,1.42
2018-07-13T15:28:45.172Z,1.50
2018-07-13T15:31:12.461Z,1.77
2018-07-13T15:33:40.079Z,1.35
2018-07-13T15:36:07.439Z,1.62
2018-07-13T15:38:41.446Z,1.55
2018-07-13T15:41:08.824Z,1.65
2018-07-13T15:43:36.239Z,1.57
2018-07-13T15:46:03.562Z,1.20
2018-07-13T15:48:30.959Z,1.57
2018-07-13T15:50:58.356Z,1.75
2018-07-13T15:53:25.719Z,1.67
2018-07-13T15:55:57.998Z,1.82
2018-07-13T15:58:28.547Z,1.77
2018-07-13T16:00:56.182Z,1.60
2018-07-13T16:03:23.726Z,1.45
2018-07-13T16:05:51.119Z,1.42
2018-07-13T16:08:19.272Z,1.50
2018-07-13T16:10:46.804Z,1.62
2018-07-13T16:13:14.093Z,1.40
2018-07-13T16:15:41.630Z,1.30
2018-07-13T16:18:08.996Z,1.70
2018-07-13T16:20:36.394Z,1.67
2018-07-13T16:23:03.780Z,1.55
2018-07-13T16:25:32.443Z,1.80
2018-07-13T16:27:59.780Z,1.50
2018-07-13T16:30:27.141Z,1.45
2018-07-13T16:32:54.476Z,1.60
2018-07-13T16:35:21.989Z,1.47
2018-07-13T16:37:49.312Z,1.70
2018-07-13T16:40:16.741Z,1.90
2018-07-13T16:42:44.095Z,2.22
2018-07-13T16:45:12.082Z,1.72
2018-07-13T16:47:39.342Z,1.70
2018-07-13T16:50:06.757Z,1.80
2018-07-13T16:52:34.361Z,1.62
2018-07-13T16:55:02.516Z,1.72
2018-07-13T16:57:29.817Z,1.80
2018-07-13T16:59:57.149Z,1.40
2018-07-13T17:02:24.491Z,1.60
2018-07-13T17:04:51.836Z,1.75
2018-07-13T17:07:19.331Z,1.65
2018-07-13T17:09:46.694Z,1.98
2018-07-13T17:12:14.082Z,1.82
2018-07-13T17:14:41.411Z,1.82
2018-07-13T17:17:08.755Z,1.98
2018-07-13T17:19:36.824Z,1.95
2018-07-13T17:22:04.250Z,2.05
2018-07-13T17:24:31.590Z,1.95
2018-07-13T17:26:58.929Z,2.00
2018-07-13T17:29:26.284Z,2.00
2018-07-13T17:31:53.694Z,1.98
2018-07-13T17:34:21.002Z,2.05
2018-07-13T17:36:48.392Z,1.87
2018-07-13T17:39:25.463Z,1.75
2018-07-13T17:41:52.931Z,1.82
2018-07-13T17:44:21.927Z,1.98
2018-07-13T17:46:49.353Z,2.10
2018-07-13T17:49:16.877Z,2.00
2018-07-13T17:51:45.560Z,2.35
2018-07-13T17:54:13.209Z,2.10
2018-07-13T17:56:40.744Z,2.02
2018-07-13T17:59:08.184Z,2.10
2018-07-13T18:01:35.867Z,2.00
2018-07-13T18:04:03.950Z,2.10
2018-07-13T18:06:31.502Z,2.40
2018-07-13T18:08:59.100Z,2.83
2018-07-13T18:11:26.776Z,3.05
2018-07-13T18:13:54.374Z,2.98
2018-07-13T18:16:23.137Z,2.60
2018-07-13T18:18:50.588Z,2.83
2018-07-13T18:21:18.449Z,3.00
2018-07-13T18:23:45.870Z,3.47
2018-07-13T18:26:13.379Z,3.62
2018-07-13T18:28:41.066Z,2.90
2018-07-13T18:31:08.519Z,3.40
2018-07-13T18:33:35.932Z,3.02
2018-07-13T18:36:03.573Z,3.35
2018-07-13T18:38:31.087Z,3.58
2018-07-13T18:40:58.556Z,4.22
2018-07-13T18:43:26.029Z,3.75
2018-07-13T18:45:53.523Z,4.17
2018-07-13T18:48:21.065Z,4.20
2018-07-13T18:50:48.533Z,4.55
2018-07-13T18:53:15.911Z,4.72
2018-07-13T18:55:44.378Z,4.05
2018-07-13T18:58:11.807Z,4.15
2018-07-13T19:00:39.326Z,4.37
2018-07-13T19:03:07.386Z,4.70
2018-07-13T19:05:34.891Z,4.17
2018-07-13T19:08:04.560Z,4.40
2018-07-13T19:10:32.029Z,4.20
2018-07-13T19:12:59.578Z,4.15
2018-07-13T19:15:27.245Z,4.43
2018-07-13T19:17:55.753Z,3.77
2018-07-13T19:20:23.288Z,4.37
2018-07-13T19:22:50.917Z,4.27
2018-07-13T19:25:19.219Z,3.60
2018-07-13T19:27:47.680Z,4.50
2018-07-13T19:30:15.745Z,4.50
2018-07-13T19:32:44.437Z,4.10
2018-07-13T19:35:11.814Z,4.17
2018-07-13T19:37:39.427Z,4.23
2018-07-13T19:40:06.902Z,4.67
2018-07-13T19:42:34.382Z,4.33
2018-07-13T19:45:02.345Z,4.33
2018-07-13T19:47:29.779Z,4.60
2018-07-13T19:49:57.090Z,3.97
2018-07-13T19:52:24.486Z,4.70
2018-07-13T19:54:51.925Z,4.23
2018-07-13T19:57:19.449Z,4.63
2018-07-13T19:59:46.723Z,4.83
2018-07-13T20:02:14.127Z,5.03
2018-07-13T20:04:41.431Z,4.60
2018-07-13T20:07:08.793Z,4.80
2018-07-13T20:09:36.186Z,4.47
2018-07-13T20:12:04.288Z,5.30
2018-07-13T20:14:32.560Z,4.83
2018-07-13T20:16:59.935Z,4.50
2018-07-13T20:19:27.313Z,5.13
2018-07-13T20:21:55.494Z,4.53
2018-07-13T20:24:22.826Z,4.57
2018-07-13T20:26:50.211Z,5.07
2018-07-13T20:29:17.576Z,5.00
2018-07-13T20:31:44.954Z,4.53
2018-07-13T20:34:12.368Z,4.23
2018-07-13T20:36:41.089Z,4.70
2018-07-13T20:39:08.468Z,4.57
2018-07-13T20:41:36.274Z,4.23
2018-07-13T20:44:03.583Z,5.67
2018-07-13T20:46:30.852Z,5.00
2018-07-13T20:48:58.100Z,4.57
2018-07-13T20:51:25.510Z,4.83
2018-07-13T20:53:52.765Z,4.80
2018-07-13T20:56:21.093Z,5.03
2018-07-13T20:58:48.513Z,5.60
2018-07-13T21:01:15.770Z,5.23
2018-07-13T21:03:43.038Z,5.03
2018-07-13T21:06:10.301Z,5.23
2018-07-13T21:08:37.631Z,5.03
2018-07-13T21:11:04.887Z,5.30
2018-07-13T21:13:32.153Z,5.27
2018-07-13T21:15:59.370Z,4.70
2018-07-13T21:18:26.665Z,4.87
2018-07-13T21:20:53.969Z,4.73
2018-07-13T21:23:21.157Z,4.50
2018-07-13T21:25:48.394Z,5.53
2018-07-13T21:28:15.661Z,4.83
2018-07-13T21:30:42.931Z,6.03
2018-07-13T21:33:10.216Z,5.13
2018-07-13T21:35:37.479Z,5.37
2018-07-13T21:38:05.069Z,5.67
2018-07-13T21:40:32.554Z,5.40
2018-07-13T21:42:59.841Z,6.00
2018-07-13T21:45:27.082Z,5.20
2018-07-13T21:47:54.362Z,5.17
2018-07-13T21:50:21.609Z,5.17
2018-07-13T21:52:48.865Z,5.17
2018-07-13T21:55:16.133Z,5.97
2018-07-13T21:57:43.384Z,5.30
2018-07-13T22:00:10.681Z,5.40
2018-07-13T22:02:37.950Z,5.70
2018-07-13T22:05:05.393Z,5.87
2018-07-13T22:07:32.685Z,5.37
2018-07-13T22:09:59.989Z,5.83
2018-07-13T22:12:27.298Z,5.43
2018-07-13T22:14:54.537Z,5.30
2018-07-13T22:17:21.789Z,5.73
2018-07-13T22:19:49.035Z,5.23
2018-07-13T22:22:16.319Z,5.43
2018-07-13T22:24:43.583Z,5.77
2018-07-13T22:27:10.846Z,5.53
2018-07-13T22:29:38.292Z,5.53
2018-07-13T22:32:05.889Z,5.57
2018-07-13T22:34:33.181Z,5.90
2018-07-13T22:37:00.406Z,5.63
2018-07-13T22:39:27.662Z,5.43
2018-07-13T22:41:54.899Z,5.73
2018-07-13T22:44:22.210Z,5.73
2018-07-13T22:46:49.450Z,5.33
2018-07-13T22:49:16.678Z,5.97
2018-07-13T22:51:44.115Z,6.00
2018-07-13T22:54:11.392Z,5.53
2018-07-13T22:56:38.677Z,5.33
2018-07-13T22:59:05.988Z,5.67
2018-07-13T23:01:33.247Z,5.97
2018-07-13T23:04:00.531Z,5.30
2018-07-13T23:06:27.764Z,5.93
2018-07-13T23:08:55.030Z,5.43
2018-07-13T23:11:22.295Z,5.87
2018-07-13T23:13:49.588Z,5.97
2018-07-13T23:16:16.822Z,5.10
2018-07-13T23:18:44.083Z,5.67
2018-07-13T23:21:11.341Z,5.80
2018-07-13T23:23:38.575Z,5.83
2018-07-13T23:26:05.859Z,5.77
2018-07-13T23:28:33.127Z,6.23
2018-07-13T23:31:00.352Z,6.30
2018-07-13T23:33:27.607Z,6.17
2018-07-13T23:35:54.843Z,6.10
2018-07-13T23:38:22.079Z,5.70
2018-07-13T23:40:49.340Z,6.63
2018-07-13T23:43:16.642Z,6.30
2018-07-13T23:45:43.918Z,6.70
2018-07-13T23:48:11.191Z,6.00
2018-07-13T23:50:38.447Z,6.20
2018-07-13T23:53:05.690Z,5.77
2018-07-13T23:55:32.927Z,6.30
2018-07-13T23:58:00.178Z,6.50
